Time;durP1;ratioP1;P1;durP2;ratioP2;P2;SDS_P1;SDS_P2;PMS_P1;PMS_P2;Temp;Humidity;BMP_temperature;BMP_pressure;BME280_temperature;BME280_humidity;BME280_pressure;Samples;Min_cycle;Max_cycle;Signal;HPM_P1;HPM_P2
2023/09/11 03:43:00;;;;;;;10.70;5.18;;;;;;;16.08;100.00;100516.28;5877556;28;20446;-83
2023/09/11 03:46:04;;;;;;;9.10;5.57;;;;;;;16.03;100.00;100513.38;5221420;34;33924;-83
2023/09/11 03:49:07;;;;;;;11.43;5.40;;;;;;;16.03;100.00;100507.97;5209822;34;34190;-83
2023/09/11 03:52:10;;;;;;;10.45;6.40;;;;;;;15.98;100.00;100511.28;5207587;34;33873;-86
2023/09/11 03:55:13;;;;;;;7.75;5.60;;;;;;;15.96;100.00;100507.13;5213386;34;33901;-87
2023/09/11 03:58:17;;;;;;;9.38;6.05;;;;;;;15.94;100.00;100509.19;5224893;34;33798;-87
2023/09/11 04:01:20;;;;;;;9.85;6.32;;;;;;;15.89;100.00;100509.84;5225036;34;33905;-88
2023/09/11 04:04:23;;;;;;;9.88;6.03;;;;;;;15.85;100.00;100504.00;5237292;34;33426;-83
2023/09/11 04:07:26;;;;;;;9.63;6.30;;;;;;;15.92;100.00;100508.59;5224737;34;33983;-83
2023/09/11 04:10:30;;;;;;;10.85;5.78;;;;;;;15.97;100.00;100508.78;5225601;34;34019;-83
2023/09/11 04:13:33;;;;;;;11.23;5.75;;;;;;;16.00;100.00;100500.19;5226590;34;34594;-83
2023/09/11 04:16:37;;;;;;;8.80;6.00;;;;;;;15.94;100.00;100501.03;5213565;34;35428;-83
2023/09/11 04:19:40;;;;;;;7.97;5.90;;;;;;;15.91;100.00;100502.28;5227276;34;34081;-85
2023/09/11 04:22:43;;;;;;;9.27;5.62;;;;;;;15.86;100.00;100496.69;5237187;34;34579;-84
2023/09/11 04:25:46;;;;;;;7.32;5.47;;;;;;;15.90;100.00;100499.81;5213016;34;33987;-84
2023/09/11 04:28:49;;;;;;;9.43;5.75;;;;;;;15.89;100.00;100493.53;5213958;34;33688;-84
2023/09/11 04:31:52;;;;;;;8.95;5.80;;;;;;;15.93;100.00;100502.09;5225270;34;33476;-84
2023/09/11 04:34:56;;;;;;;11.12;6.00;;;;;;;15.90;100.00;100499.81;5225465;34;34195;-84
2023/09/11 04:37:59;;;;;;;13.62;5.55;;;;;;;15.87;100.00;100496.47;5225928;34;35053;-84
2023/09/11 04:41:03;;;;;;;8.23;5.10;;;;;;;15.91;100.00;100494.16;5237423;34;33894;-84
2023/09/11 04:44:06;;;;;;;8.63;5.85;;;;;;;15.93;100.00;100491.25;5224322;34;33750;-84
2023/09/11 04:47:09;;;;;;;11.07;5.90;;;;;;;15.98;100.00;100489.56;5224786;34;33668;-84
2023/09/11 04:50:12;;;;;;;9.18;5.25;;;;;;;16.03;100.00;100492.50;5224678;34;34944;-84
2023/09/11 04:53:16;;;;;;;10.50;6.30;;;;;;;16.09;100.00;100482.66;5224336;34;34430;-84
2023/09/11 04:56:19;;;;;;;8.88;5.37;;;;;;;16.21;100.00;100489.13;5237072;34;34632;-84
2023/09/11 04:59:22;;;;;;;9.63;5.87;;;;;;;16.35;100.00;100486.34;5224805;34;33726;-84
2023/09/11 05:02:25;;;;;;;13.15;5.95;;;;;;;16.36;100.00;100488.03;5225094;34;33337;-84
2023/09/11 05:05:29;;;;;;;10.32;5.75;;;;;;;16.42;100.00;100482.56;5239505;34;33471;-84
2023/09/11 05:08:32;;;;;;;9.02;5.47;;;;;;;16.47;100.00;100484.66;5226156;34;34687;-84
2023/09/11 05:11:55;;;;;;;7.28;5.22;;;;;;;16.52;100.00;100490.28;5227312;34;34027;-83
2023/09/11 05:14:59;;;;;;;8.02;5.55;;;;;;;16.59;100.00;100490.28;5226730;34;34047;-84
2023/09/11 05:18:03;;;;;;;8.27;5.28;;;;;;;16.66;100.00;100485.63;5224164;34;33700;-84
2023/09/11 05:21:06;;;;;;;9.80;6.12;;;;;;;16.73;100.00;100490.00;5236571;34;34617;-85
2023/09/11 05:24:11;;;;;;;9.63;6.47;;;;;;;16.89;100.00;100487.87;5224376;34;34119;-84
2023/09/11 05:27:14;;;;;;;7.03;5.65;;;;;;;17.02;100.00;100484.25;5211975;34;34252;-83
2023/09/11 05:30:17;;;;;;;8.00;5.95;;;;;;;17.11;100.00;100486.50;5236761;34;33826;-83
2023/09/11 05:33:24;;;;;;;7.50;5.35;;;;;;;17.18;100.00;100486.47;5223961;34;33578;-83
2023/09/11 05:36:27;;;;;;;8.57;5.80;;;;;;;17.29;100.00;100479.50;5221900;34;33732;-82
2023/09/11 05:39:32;;;;;;;15.30;6.10;;;;;;;17.44;100.00;100482.72;5223401;34;33771;-82
2023/09/11 05:42:35;;;;;;;9.60;6.12;;;;;;;17.56;100.00;100483.69;5223367;33;33466;-82
2023/09/11 05:45:38;;;;;;;8.50;6.25;;;;;;;17.66;100.00;100483.19;5232537;34;33404;-82
2023/09/11 05:48:41;;;;;;;10.05;5.50;;;;;;;17.80;100.00;100479.31;5235632;34;34054;-82
2023/09/11 05:51:45;;;;;;;11.07;5.93;;;;;;;17.95;100.00;100480.87;5211395;34;34136;-86
2023/09/11 05:54:48;;;;;;;10.95;5.40;;;;;;;18.08;100.00;100484.31;5214208;34;34907;-86
2023/09/11 05:57:51;;;;;;;8.85;6.05;;;;;;;18.22;100.00;100485.03;5227098;34;33938;-86
2023/09/11 06:00:54;;;;;;;13.48;5.78;;;;;;;18.40;100.00;100483.34;5227399;34;34386;-86
2023/09/11 06:03:58;;;;;;;9.85;6.43;;;;;;;18.47;100.00;100489.56;5211457;34;33793;-83
2023/09/11 06:07:03;;;;;;;9.48;5.70;;;;;;;18.62;100.00;100481.81;5218002;33;33305;-83
2023/09/11 06:10:07;;;;;;;12.70;6.03;;;;;;;18.74;100.00;100485.47;5219470;34;33975;-83
2023/09/11 06:13:09;;;;;;;8.52;5.18;;;;;;;18.89;100.00;100485.06;5212614;34;33784;-82
2023/09/11 06:16:13;;;;;;;8.43;5.97;;;;;;;19.06;100.00;100487.19;5223456;34;34518;-82
2023/09/11 06:19:16;;;;;;;7.62;6.00;;;;;;;19.23;100.00;100486.28;5223188;34;33573;-82
2023/09/11 06:22:19;;;;;;;10.13;6.28;;;;;;;19.26;100.00;100485.81;5235846;34;34592;-82
2023/09/11 06:25:22;;;;;;;9.45;6.00;;;;;;;19.49;100.00;100478.78;5223938;34;33775;-83
2023/09/11 06:28:25;;;;;;;8.77;5.43;;;;;;;19.61;100.00;100481.53;5222140;34;34508;-82
2023/09/11 06:31:31;;;;;;;7.55;5.60;;;;;;;19.77;100.00;100477.28;5211733;34;33511;-82
2023/09/11 06:34:34;;;;;;;9.45;5.45;;;;;;;19.92;100.00;100480.41;5235515;34;33907;-82
2023/09/11 06:37:37;;;;;;;9.35;6.00;;;;;;;20.04;100.00;100469.47;5223057;34;33185;-83
2023/09/11 06:40:40;;;;;;;8.30;4.75;;;;;;;20.17;100.00;100483.72;5225353;34;33778;-83
2023/09/11 06:43:43;;;;;;;8.60;5.15;;;;;;;20.31;98.27;100473.38;5225319;34;34288;-83
2023/09/11 06:46:46;;;;;;;8.75;4.95;;;;;;;20.50;98.92;100484.97;5212906;34;33880;-83
2023/09/11 06:49:49;;;;;;;6.50;5.12;;;;;;;20.63;97.41;100480.38;5225545;34;33736;-82
2023/09/11 06:52:53;;;;;;;7.28;5.40;;;;;;;20.80;96.60;100484.00;5218625;34;33972;-83
2023/09/11 06:55:56;;;;;;;7.30;5.50;;;;;;;20.93;95.77;100486.44;5223390;34;33879;-83
2023/09/11 06:58:59;;;;;;;9.40;5.60;;;;;;;20.99;95.55;100487.38;5233865;34;34018;-83
2023/09/11 07:02:02;;;;;;;7.32;5.32;;;;;;;21.19;95.27;100484.19;5234061;34;35325;-83
2023/09/11 07:05:05;;;;;;;8.35;5.95;;;;;;;21.32;94.39;100496.75;5235740;34;34017;-83
2023/09/11 07:08:08;;;;;;;10.40;5.37;;;;;;;21.49;94.20;100484.78;5237959;34;33960;-83
2023/09/11 07:11:11;;;;;;;8.07;5.40;;;;;;;21.74;94.04;100491.78;5238201;34;35429;-83
2023/09/11 07:14:22;;;;;;;6.55;4.78;;;;;;;21.90;93.13;100495.59;5236099;34;33681;-83
2023/09/11 07:17:25;;;;;;;13.23;5.53;;;;;;;22.16;91.99;100488.56;5239433;34;33888;-83
2023/09/11 07:20:28;;;;;;;9.90;5.60;;;;;;;22.33;90.14;100492.16;5225246;34;33859;-83
2023/09/11 07:23:33;;;;;;;8.60;5.50;;;;;;;22.48;90.29;100493.44;5210753;34;33729;-83
2023/09/11 07:26:37;;;;;;;9.77;4.85;;;;;;;22.66;88.25;100497.78;5239827;34;34277;-83
2023/09/11 07:29:40;;;;;;;8.80;5.28;;;;;;;22.67;87.75;100497.56;5212720;34;34963;-83
2023/09/11 07:32:43;;;;;;;8.93;5.45;;;;;;;22.89;87.25;100504.94;5224645;34;34535;-84
2023/09/11 07:35:46;;;;;;;11.80;5.82;;;;;;;23.11;86.37;100507.69;5226660;33;34618;-83
2023/09/11 07:38:49;;;;;;;9.55;5.70;;;;;;;23.13;86.21;100505.50;5226861;33;34117;-83
2023/09/11 07:41:53;;;;;;;10.10;6.07;;;;;;;23.30;85.80;100506.25;5227844;34;33806;-83
2023/09/11 07:44:56;;;;;;;13.15;6.00;;;;;;;23.57;85.39;100503.47;5224734;34;34179;-83
2023/09/11 07:47:59;;;;;;;7.75;5.30;;;;;;;23.80;83.99;100504.25;5223890;34;34025;-83
2023/09/11 07:51:02;;;;;;;8.05;5.47;;;;;;;23.91;83.83;100509.56;5223925;34;34011;-83
2023/09/11 07:54:05;;;;;;;12.70;6.15;;;;;;;24.07;81.78;100504.19;5213359;34;34673;-86
2023/09/11 07:57:08;;;;;;;9.25;6.28;;;;;;;24.29;81.40;100498.56;5238385;34;34085;-85
2023/09/11 08:00:12;;;;;;;8.82;5.65;;;;;;;24.48;79.23;100486.03;5225597;34;34534;-86
2023/09/11 08:03:18;;;;;;;7.65;5.50;;;;;;;24.75;78.15;100487.81;5225365;33;34932;-89
2023/09/11 08:06:22;;;;;;;11.05;5.93;;;;;;;24.98;77.89;100489.25;5226145;34;34753;-90
2023/09/11 08:09:25;;;;;;;6.93;5.00;;;;;;;25.18;73.55;100485.75;5225879;34;34767;-90
2023/09/11 08:12:28;;;;;;;10.07;5.50;;;;;;;25.32;74.34;100486.88;5226031;34;34027;-86
2023/09/11 08:15:31;;;;;;;8.65;5.10;;;;;;;25.38;72.27;100488.53;5219897;33;33024;-86
2023/09/11 08:18:34;;;;;;;11.85;5.28;;;;;;;25.55;72.24;100480.03;5224526;34;32341;-84
2023/09/11 08:21:38;;;;;;;7.75;5.05;;;;;;;25.59;72.24;100483.88;5237202;34;33851;-85
2023/09/11 08:24:40;;;;;;;12.45;5.37;;;;;;;25.80;70.71;100487.47;5214587;33;33768;-86
2023/09/11 08:27:44;;;;;;;11.85;5.10;;;;;;;26.06;67.94;100480.00;5224260;34;33855;-85
2023/09/11 08:30:47;;;;;;;11.35;4.95;;;;;;;26.14;67.93;100478.63;5203709;34;33982;-86
2023/09/11 08:33:50;;;;;;;6.80;4.78;;;;;;;26.32;66.18;100477.19;5233483;33;34391;-86
2023/09/11 08:36:57;;;;;;;10.73;4.62;;;;;;;26.38;66.79;100468.63;5243304;33;34707;-86
2023/09/11 08:40:01;;;;;;;9.70;5.03;;;;;;;26.58;66.19;100459.47;5236489;34;33648;-86
2023/09/11 08:43:04;;;;;;;8.38;4.35;;;;;;;26.86;65.71;100466.25;5204541;34;34754;-86
2023/09/11 08:46:09;;;;;;;11.05;4.35;;;;;;;27.14;63.96;100458.34;5226056;34;34154;-86
2023/09/11 08:49:16;;;;;;;8.80;4.62;;;;;;;27.28;63.10;100464.91;5214645;34;33984;-86
2023/09/11 08:52:19;;;;;;;9.82;5.03;;;;;;;27.28;62.14;100456.63;5226880;34;33888;-86
2023/09/11 08:55:25;;;;;;;10.15;4.32;;;;;;;27.43;60.39;100460.37;5235050;34;34835;-86
2023/09/11 08:58:31;;;;;;;9.65;4.80;;;;;;;27.52;61.56;100455.88;5244873;33;34070;-85
2023/09/11 09:01:34;;;;;;;10.27;5.20;;;;;;;27.52;61.37;100459.47;5232498;33;34808;-86
2023/09/11 09:04:41;;;;;;;10.75;4.97;;;;;;;27.69;62.25;100450.75;5224446;34;33355;-85
2023/09/11 09:07:45;;;;;;;9.27;3.92;;;;;;;27.89;59.19;100457.25;5228430;34;33898;-86
2023/09/11 09:10:49;;;;;;;8.40;4.60;;;;;;;28.13;60.76;100457.28;5241690;34;34738;-86
2023/09/11 09:13:52;;;;;;;7.57;4.53;;;;;;;28.32;56.20;100447.09;5202788;34;34021;-86
2023/09/11 09:16:56;;;;;;;8.90;4.95;;;;;;;28.36;54.46;100444.56;5238986;34;34021;-85
2023/09/11 09:19:59;;;;;;;8.18;4.75;;;;;;;28.31;54.30;100448.22;5236285;34;34791;-86
2023/09/11 09:23:03;;;;;;;7.45;4.50;;;;;;;28.45;52.12;100448.38;5203706;34;33358;-86
2023/09/11 09:26:07;;;;;;;6.68;4.18;;;;;;;28.60;52.58;100436.25;5216506;33;34024;-86
2023/09/11 09:29:11;;;;;;;8.02;4.68;;;;;;;28.75;51.11;100438.81;5230290;34;35156;-87
2023/09/11 09:32:15;;;;;;;7.53;4.18;;;;;;;28.97;49.57;100435.47;5223103;34;34928;-86
2023/09/11 09:35:25;;;;;;;7.50;4.00;;;;;;;29.01;48.37;100439.28;5221804;34;34477;-86
2023/09/11 09:38:30;;;;;;;7.20;4.45;;;;;;;29.13;48.39;100428.62;5234584;34;33230;-87
2023/09/11 09:41:34;;;;;;;11.48;4.20;;;;;;;29.04;50.98;100432.34;5235033;34;33842;-86
2023/09/11 09:44:39;;;;;;;7.53;4.80;;;;;;;29.38;48.59;100434.88;5205428;34;34070;-86
2023/09/11 09:47:42;;;;;;;7.30;3.70;;;;;;;29.39;46.64;100426.25;5231204;34;34291;-86
2023/09/11 09:50:52;;;;;;;4.90;3.70;;;;;;;29.66;46.12;100421.13;5207305;34;33657;-85
2023/09/11 09:53:56;;;;;;;6.70;4.15;;;;;;;29.74;45.28;100426.78;5231468;34;34005;-90
2023/09/11 09:57:02;;;;;;;9.75;4.07;;;;;;;29.89;44.93;100419.31;5231739;33;33854;-87
2023/09/11 10:00:06;;;;;;;8.88;4.12;;;;;;;29.89;46.36;100411.81;5225020;34;34608;-86
2023/09/11 10:03:11;;;;;;;7.12;3.80;;;;;;;29.75;45.24;100408.22;5227845;33;33373;-86
2023/09/11 10:06:20;;;;;;;5.53;3.67;;;;;;;29.97;43.86;100408.31;5217711;34;34605;-86
2023/09/11 10:09:24;;;;;;;5.70;3.97;;;;;;;30.07;43.51;100407.31;5233788;34;33962;-86
2023/09/11 10:12:26;;;;;;;5.65;3.50;;;;;;;30.21;46.08;100399.00;5220662;34;33475;-86
2023/09/11 10:15:31;;;;;;;6.05;3.45;;;;;;;30.52;44.80;100387.25;5202204;34;33761;-86
2023/09/11 10:18:34;;;;;;;6.03;3.75;;;;;;;30.60;38.53;100386.53;5231775;34;34597;-85
2023/09/11 10:21:39;;;;;;;8.18;4.10;;;;;;;30.56;40.74;100385.50;5223667;34;34555;-85
2023/09/11 10:24:42;;;;;;;5.78;3.45;;;;;;;31.00;43.28;100376.44;5223451;34;33877;-85
2023/09/11 10:27:48;;;;;;;7.60;3.67;;;;;;;30.93;41.37;100376.88;5220273;34;34914;-85
2023/09/11 10:31:02;;;;;;;5.20;3.50;;;;;;;31.46;38.79;100372.53;5229721;34;33935;-85
2023/09/11 10:34:11;;;;;;;4.30;3.50;;;;;;;31.57;36.71;100364.75;5230236;34;34726;-85
2023/09/11 10:37:16;;;;;;;6.80;3.45;;;;;;;31.59;35.38;100366.09;5232515;34;34070;-85
2023/09/11 10:40:19;;;;;;;4.68;3.30;;;;;;;31.47;35.52;100360.25;5227656;34;33550;-85
2023/09/11 10:43:23;;;;;;;4.05;3.33;;;;;;;31.61;36.35;100362.97;5224692;34;33999;-85
2023/09/11 10:46:26;;;;;;;5.12;3.25;;;;;;;31.93;33.98;100359.03;5223623;34;34570;-85
2023/09/11 10:49:34;;;;;;;4.65;3.58;;;;;;;31.69;33.91;100353.03;5244760;33;33473;-85
2023/09/11 10:52:37;;;;;;;5.70;4.07;;;;;;;31.70;35.33;100358.25;5253099;33;33288;-84
2023/09/11 10:55:40;;;;;;;5.00;3.70;;;;;;;32.24;35.91;100350.62;5224657;34;33678;-85
2023/09/11 10:58:44;;;;;;;6.07;3.40;;;;;;;32.60;34.17;100351.53;5224209;34;32418;-85
2023/09/11 11:01:47;;;;;;;8.35;4.05;;;;;;;32.67;33.13;100351.84;5216422;34;34533;-85
2023/09/11 11:04:51;;;;;;;5.75;3.85;;;;;;;32.92;33.17;100353.84;5212692;34;33715;-85
2023/09/11 11:07:54;;;;;;;5.25;3.62;;;;;;;33.25;33.34;100344.97;5227131;34;32331;-85
2023/09/11 11:11:00;;;;;;;8.88;3.83;;;;;;;33.63;31.58;100339.47;5214200;34;34781;-85
2023/09/11 11:14:13;;;;;;;6.47;3.85;;;;;;;33.64;31.84;100341.13;5236168;34;34757;-84
2023/09/11 11:17:16;;;;;;;5.80;3.60;;;;;;;34.29;31.66;100343.78;5225599;33;34007;-84
2023/09/11 11:20:19;;;;;;;4.37;3.65;;;;;;;34.90;30.35;100332.16;5222114;33;35515;-84
2023/09/11 11:23:25;;;;;;;6.32;3.70;;;;;;;35.44;29.72;100330.12;5214770;34;33885;-83
2023/09/11 11:26:30;;;;;;;7.68;4.12;;;;;;;35.31;29.48;100336.88;5224766;34;33916;-83
2023/09/11 11:29:33;;;;;;;7.15;3.58;;;;;;;35.77;28.11;100337.66;5216464;34;34147;-87
2023/09/11 11:32:39;;;;;;;8.60;4.18;;;;;;;35.81;27.90;100335.81;5213968;34;34082;-87
2023/09/11 11:35:46;;;;;;;6.70;3.80;;;;;;;36.74;27.33;100323.91;5238583;34;33714;-88
2023/09/11 11:38:56;;;;;;;7.80;3.30;;;;;;;37.69;25.75;100323.34;5239769;33;33915;-84
2023/09/11 11:42:00;;;;;;;4.93;3.60;;;;;;;38.01;25.44;100322.16;5239135;34;33627;-83
2023/09/11 11:45:05;;;;;;;9.93;3.75;;;;;;;38.46;23.18;100315.19;5219378;34;34617;-84
2023/09/11 11:48:11;;;;;;;20.12;4.70;;;;;;;39.56;22.12;100314.97;5236500;33;34690;-84
2023/09/11 11:51:15;;;;;;;4.95;3.78;;;;;;;39.99;21.95;100308.06;5220971;33;34270;-84
2023/09/11 11:54:23;;;;;;;7.82;3.70;;;;;;;41.16;21.53;100304.38;5237379;33;33816;-84
2023/09/11 11:57:26;;;;;;;4.57;3.30;;;;;;;42.18;19.79;100293.53;5240887;34;33773;-84
2023/09/11 12:00:30;;;;;;;6.43;3.30;;;;;;;41.98;19.92;100291.00;5225096;34;33955;-84
2023/09/11 12:03:45;;;;;;;7.82;3.53;;;;;;;41.85;19.38;100290.47;5230659;34;34823;-84
2023/09/11 12:06:48;;;;;;;4.03;3.37;;;;;;;42.67;19.26;100283.66;5238189;34;34075;-84
2023/09/11 12:09:52;;;;;;;3.90;3.37;;;;;;;44.00;17.75;100288.34;5225056;34;33434;-84
2023/09/11 12:12:55;;;;;;;4.97;3.25;;;;;;;43.34;18.30;100282.25;5213275;34;33860;-84
2023/09/11 12:15:59;;;;;;;4.40;3.10;;;;;;;43.78;19.50;100279.03;5237889;34;33520;-84
2023/09/11 12:19:03;;;;;;;7.12;3.33;;;;;;;43.88;18.23;100271.69;5237485;34;33975;-84
2023/09/11 12:22:08;;;;;;;7.40;3.20;;;;;;;44.42;17.91;100274.47;5223774;34;33779;-84
2023/09/11 12:25:12;;;;;;;7.28;3.30;;;;;;;44.88;17.52;100276.28;5237179;34;35054;-84
2023/09/11 12:28:17;;;;;;;6.43;3.47;;;;;;;44.94;17.67;100272.59;5236668;33;33757;-84
2023/09/11 12:31:20;;;;;;;3.87;3.20;;;;;;;45.24;17.12;100262.66;5236789;34;34016;-84
2023/09/11 12:34:24;;;;;;;3.80;3.08;;;;;;;45.03;16.59;100272.13;5220932;34;33402;-84
2023/09/11 12:37:27;;;;;;;4.80;3.00;;;;;;;45.19;16.78;100266.75;5229195;33;34845;-84
2023/09/11 12:40:30;;;;;;;5.10;2.97;;;;;;;45.27;16.72;100261.81;5228912;34;33840;-84
2023/09/11 12:43:33;;;;;;;5.20;3.28;;;;;;;46.29;16.17;100258.41;5208515;34;34672;-83
2023/09/11 12:46:36;;;;;;;6.55;3.35;;;;;;;44.69;16.98;100263.38;5209480;34;34616;-84
2023/09/11 12:49:40;;;;;;;6.35;2.97;;;;;;;44.46;16.98;100261.03;5236609;34;33622;-84
2023/09/11 12:52:45;;;;;;;4.15;3.03;;;;;;;45.18;16.79;100255.81;5235806;34;34162;-83
2023/09/11 12:55:48;;;;;;;6.28;3.28;;;;;;;45.58;16.17;100245.75;5236198;34;34222;-84
2023/09/11 12:58:52;;;;;;;5.07;3.20;;;;;;;46.34;15.59;100245.75;5226894;34;34713;-84
2023/09/11 13:01:56;;;;;;;6.82;3.28;;;;;;;47.72;14.94;100246.94;5238530;34;33806;-84
2023/09/11 13:05:00;;;;;;;4.87;3.15;;;;;;;47.86;14.86;100240.97;5227637;34;33835;-84
2023/09/11 13:08:08;;;;;;;5.43;3.00;;;;;;;46.56;15.21;100235.69;5240350;34;35327;-84
2023/09/11 13:11:11;;;;;;;3.53;2.78;;;;;;;46.39;15.20;100219.63;5234169;34;33586;-88
2023/09/11 13:14:14;;;;;;;4.70;3.00;;;;;;;46.00;15.89;100232.31;5239818;34;34496;-88
2023/09/11 13:17:18;;;;;;;7.32;3.50;;;;;;;45.85;15.75;100228.00;5241094;34;35155;-88
2023/09/11 13:20:21;;;;;;;3.37;3.05;;;;;;;46.22;15.56;100217.81;5210933;34;34337;-85
2023/09/11 13:23:25;;;;;;;5.70;2.85;;;;;;;47.51;14.59;100222.47;5219428;34;33745;-85
2023/09/11 13:26:28;;;;;;;6.57;2.90;;;;;;;47.98;14.98;100222.41;5222624;34;32750;-85
2023/09/11 13:29:31;;;;;;;3.55;2.78;;;;;;;48.04;14.48;100222.69;5210262;34;33857;-85
2023/09/11 13:32:38;;;;;;;5.22;2.87;;;;;;;47.42;15.04;100207.94;5226632;34;33966;-84
2023/09/11 13:35:41;;;;;;;6.10;3.00;;;;;;;48.19;14.08;100200.38;5234952;34;33503;-85
2023/09/11 13:38:44;;;;;;;5.15;3.17;;;;;;;46.91;14.94;100207.94;5222249;34;33831;-86
2023/09/11 13:41:48;;;;;;;6.65;3.30;;;;;;;48.10;14.11;100198.09;5212541;34;33951;-85
2023/09/11 13:44:52;;;;;;;5.32;3.40;;;;;;;47.30;14.44;100191.41;5222184;34;33816;-85
2023/09/11 13:47:56;;;;;;;11.53;3.10;;;;;;;47.24;14.39;100193.97;5221534;34;34721;-85
2023/09/11 13:50:59;;;;;;;10.90;3.30;;;;;;;46.05;15.75;100185.50;5220083;34;33801;-85
2023/09/11 13:54:02;;;;;;;6.93;3.30;;;;;;;46.83;15.64;100188.53;5233581;34;34186;-85
2023/09/11 13:57:05;;;;;;;6.70;3.33;;;;;;;45.48;16.55;100187.69;5220540;34;33733;-86
2023/09/11 14:00:09;;;;;;;4.72;3.12;;;;;;;45.99;15.48;100176.63;5215532;34;33485;-85
2023/09/11 14:03:13;;;;;;;7.07;2.92;;;;;;;45.29;16.54;100187.50;5211484;34;34253;-85
2023/09/11 14:06:16;;;;;;;5.22;3.12;;;;;;;45.25;15.88;100171.28;5217298;34;34923;-85
2023/09/11 14:09:19;;;;;;;4.47;3.22;;;;;;;42.19;18.70;100179.16;5232821;33;33838;-85
2023/09/11 14:12:22;;;;;;;8.07;3.78;;;;;;;39.81;20.62;100169.66;5205373;34;33863;-85
2023/09/11 14:15:25;;;;;;;6.05;3.37;;;;;;;38.27;23.31;100171.72;5220951;34;34831;-84
2023/09/11 14:18:28;;;;;;;6.70;3.60;;;;;;;37.06;24.02;100172.47;5224301;34;33950;-84
2023/09/11 14:21:31;;;;;;;5.78;3.62;;;;;;;36.22;25.41;100162.97;5222799;34;35214;-85
2023/09/11 14:24:34;;;;;;;4.82;3.75;;;;;;;35.26;25.56;100168.34;5223375;34;34924;-85
2023/09/11 14:27:37;;;;;;;6.22;3.70;;;;;;;34.57;27.61;100161.53;5223425;34;34561;-85
2023/09/11 14:30:41;;;;;;;6.95;3.58;;;;;;;34.23;27.55;100169.88;5212243;34;34725;-85
2023/09/11 14:33:45;;;;;;;5.97;3.87;;;;;;;33.77;28.09;100163.31;5234369;34;33564;-85
2023/09/11 14:36:48;;;;;;;9.10;3.10;;;;;;;33.42;28.58;100155.13;5209639;34;34631;-85
2023/09/11 14:40:03;;;;;;;10.00;3.70;;;;;;;33.18;28.76;100152.13;5223985;34;33623;-84
2023/09/11 14:43:06;;;;;;;7.87;3.83;;;;;;;32.88;29.49;100154.88;5222848;34;33829;-84
2023/09/11 14:46:09;;;;;;;11.25;5.20;;;;;;;32.40;30.66;100158.69;5210847;34;34466;-84
2023/09/11 14:49:12;;;;;;;6.00;3.83;;;;;;;32.06;30.88;100154.81;5212067;34;33700;-84
2023/09/11 14:52:14;;;;;;;4.85;3.78;;;;;;;31.89;31.55;100153.94;5233931;34;34401;-84
2023/09/11 14:55:17;;;;;;;6.05;4.00;;;;;;;31.64;31.42;100156.34;5221605;34;34171;-84
2023/09/11 14:58:21;;;;;;;7.03;3.50;;;;;;;31.56;31.67;100159.94;5235843;34;33775;-84
2023/09/11 15:01:24;;;;;;;5.60;4.03;;;;;;;31.25;33.19;100144.12;5227348;34;34915;-82
2023/09/11 15:04:27;;;;;;;6.03;3.90;;;;;;;31.10;33.12;100145.37;5221467;34;33539;-82
2023/09/11 15:07:49;;;;;;;6.40;4.20;;;;;;;30.86;33.16;100148.56;5229876;34;33957;-86
2023/09/11 15:10:59;;;;;;;6.07;3.80;;;;;;;30.76;33.30;100136.84;5227976;34;33828;-86
2023/09/11 15:14:02;;;;;;;8.38;3.92;;;;;;;30.84;33.62;100144.44;5243044;34;33593;-82
2023/09/11 15:17:05;;;;;;;9.90;4.22;;;;;;;30.52;33.75;100154.69;5225112;34;33856;-82
2023/09/11 15:20:09;;;;;;;6.18;4.30;;;;;;;30.45;33.51;100146.81;5220551;34;147051;-82
2023/09/11 15:23:12;;;;;;;4.18;3.58;;;;;;;30.34;34.59;100155.72;5238891;34;35684;-82
2023/09/11 15:26:15;;;;;;;6.60;4.10;;;;;;;30.22;35.05;100147.94;5227203;34;33873;-82
2023/09/11 15:29:18;;;;;;;9.18;4.10;;;;;;;30.11;34.80;100152.06;5238135;34;33680;-82
2023/09/11 15:32:21;;;;;;;9.20;3.90;;;;;;;29.93;36.46;100149.16;5241594;34;33775;-82
2023/09/11 15:35:24;;;;;;;6.93;4.12;;;;;;;29.83;34.88;100146.59;5225001;34;33325;-82
2023/09/11 15:38:32;;;;;;;6.82;4.20;;;;;;;29.88;35.08;100146.47;5225630;34;34362;-82
2023/09/11 15:41:35;;;;;;;6.43;4.12;;;;;;;29.80;35.15;100142.47;5237523;34;33775;-82
2023/09/11 15:44:38;;;;;;;6.53;4.45;;;;;;;29.70;36.41;100142.72;5237087;34;33813;-82
2023/09/11 15:47:41;;;;;;;16.17;4.30;;;;;;;29.62;36.31;100151.78;5225103;34;34041;-82
2023/09/11 15:50:44;;;;;;;7.15;3.95;;;;;;;29.49;39.13;100149.81;5213459;34;33715;-82
2023/09/11 15:53:47;;;;;;;7.18;4.05;;;;;;;29.34;38.00;100145.44;5213765;34;33892;-82
2023/09/11 15:56:52;;;;;;;9.55;4.05;;;;;;;29.28;37.08;100141.09;5213765;34;34680;-82
2023/09/11 15:59:55;;;;;;;7.87;3.90;;;;;;;29.15;37.49;100135.25;5225273;34;34613;-82
2023/09/11 16:02:58;;;;;;;7.35;4.20;;;;;;;29.13;37.65;100137.53;5213935;34;34012;-82
2023/09/11 16:06:01;;;;;;;5.95;3.83;;;;;;;29.18;37.25;100127.44;5227015;34;33646;-81
2023/09/11 16:09:04;;;;;;;10.35;3.95;;;;;;;29.03;37.79;100125.81;5234958;34;35232;-81
2023/09/11 16:12:08;;;;;;;7.53;4.22;;;;;;;29.01;37.25;100120.53;5247616;34;33626;-82
2023/09/11 16:15:11;;;;;;;6.75;3.83;;;;;;;28.87;37.75;100114.16;5224032;34;33958;-81
2023/09/11 16:18:15;;;;;;;6.72;3.95;;;;;;;28.79;37.31;100121.22;5243192;34;34621;-81
2023/09/11 16:21:18;;;;;;;5.72;4.12;;;;;;;28.75;37.78;100117.41;5239422;34;33696;-82
2023/09/11 16:24:41;;;;;;;5.03;3.87;;;;;;;28.65;37.83;100121.19;5218342;34;33938;-83
2023/09/11 16:27:44;;;;;;;6.47;3.92;;;;;;;28.66;37.92;100124.78;5213765;34;34454;-82
2023/09/11 16:30:47;;;;;;;8.45;3.90;;;;;;;28.54;39.31;100133.59;5240627;34;33852;-83
2023/09/11 16:33:52;;;;;;;6.03;4.20;;;;;;;28.34;40.30;100117.28;5226226;34;33455;-83
2023/09/11 16:36:56;;;;;;;7.50;3.97;;;;;;;28.17;41.11;100115.91;5225979;34;33442;-83
2023/09/11 16:39:59;;;;;;;6.87;4.22;;;;;;;28.01;40.99;100120.84;5214314;34;33718;-83
2023/09/11 16:43:02;;;;;;;7.45;4.10;;;;;;;27.86;42.05;100117.50;5224321;34;33864;-83
2023/09/11 16:46:05;;;;;;;9.10;4.50;;;;;;;27.68;44.88;100117.19;5213534;34;33598;-83
2023/09/11 16:49:08;;;;;;;7.20;4.22;;;;;;;27.50;44.05;100118.81;5215429;34;33853;-83
2023/09/11 16:52:12;;;;;;;6.47;4.20;;;;;;;27.33;45.91;100112.97;5225792;34;33677;-83
2023/09/11 16:55:15;;;;;;;6.57;4.40;;;;;;;27.19;47.25;100110.06;5214042;34;34050;-83
2023/09/11 16:58:18;;;;;;;9.13;4.57;;;;;;;27.01;44.67;100119.13;5224929;34;33689;-83
2023/09/11 17:01:22;;;;;;;8.30;4.50;;;;;;;26.87;46.27;100107.94;5215061;34;33734;-86
2023/09/11 17:04:25;;;;;;;6.05;4.57;;;;;;;26.71;48.48;100106.47;5215355;34;34075;-87
2023/09/11 17:07:29;;;;;;;9.43;4.90;;;;;;;26.56;48.55;100113.78;5229426;34;33875;-87
2023/09/11 17:10:32;;;;;;;9.60;4.40;;;;;;;26.41;50.89;100111.97;5239638;34;33943;-83
2023/09/11 17:13:36;;;;;;;7.18;4.57;;;;;;;26.22;51.40;100113.78;5229930;34;35031;-83
2023/09/11 17:16:39;;;;;;;6.22;4.45;;;;;;;26.06;52.70;100126.03;5224381;34;33470;-83
2023/09/11 17:19:42;;;;;;;9.13;4.95;;;;;;;25.91;52.68;100127.78;5224497;34;34910;-83
2023/09/11 17:22:45;;;;;;;9.52;4.95;;;;;;;25.76;53.78;100122.34;5223302;34;33905;-80
